createdAt,value
2022-09-21T00:04:17.142Z,1.90
2022-09-21T00:09:19.203Z,1.70
2022-09-21T00:14:21.492Z,1.90
2022-09-21T00:19:24.912Z,1.58
2022-09-21T00:24:27.922Z,1.75
2022-09-21T00:29:30.007Z,1.75
2022-09-21T00:34:33.389Z,1.58
2022-09-21T00:39:35.672Z,1.80
2022-09-21T00:44:37.952Z,2.05
2022-09-21T00:49:43.225Z,2.10
2022-09-21T00:54:50.117Z,1.80
2022-09-21T00:59:54.915Z,1.80
2022-09-21T01:04:58.780Z,1.80
2022-09-21T01:10:03.849Z,1.80
2022-09-21T01:15:24.560Z,1.80
2022-09-21T01:20:53.824Z,1.70
2022-09-21T01:26:08.034Z,1.98
2022-09-21T01:31:16.735Z,1.85
2022-09-21T01:36:24.884Z,1.88
2022-09-21T01:41:30.306Z,2.10
2022-09-21T01:46:35.164Z,1.80
2022-09-21T01:51:41.282Z,1.80
2022-09-21T01:56:46.894Z,1.95
2022-09-21T02:01:54.884Z,1.80
2022-09-21T02:06:57.228Z,1.67
2022-09-21T02:12:02.216Z,1.73
2022-09-21T02:17:19.818Z,1.70
2022-09-21T02:22:33.328Z,1.92
2022-09-21T02:27:42.813Z,1.80
2022-09-21T02:32:52.865Z,1.55
2022-09-21T02:37:59.788Z,1.80
2022-09-21T02:43:07.162Z,1.70
2022-09-21T02:48:15.831Z,1.92
2022-09-21T02:53:23.647Z,1.95
2022-09-21T02:58:28.622Z,1.98
2022-09-21T03:03:32.171Z,1.80
2022-09-21T03:08:34.291Z,2.10
2022-09-21T03:13:36.898Z,1.88
2022-09-21T03:18:40.553Z,2.00
2022-09-21T03:23:42.633Z,1.70
2022-09-21T03:28:45.209Z,2.08
2022-09-21T03:33:48.753Z,1.80
2022-09-21T03:38:50.823Z,2.20
2022-09-21T03:43:53.168Z,1.92
2022-09-21T03:48:57.553Z,2.10
2022-09-21T03:53:59.645Z,2.20
2022-09-21T03:59:01.895Z,2.15
2022-09-21T04:04:05.573Z,2.22
2022-09-21T04:09:07.791Z,2.70
2022-09-21T04:14:10.856Z,2.35
2022-09-21T04:19:14.267Z,2.50
2022-09-21T04:24:16.841Z,2.90
2022-09-21T04:29:19.072Z,3.10
2022-09-21T04:34:22.661Z,2.90
2022-09-21T04:39:25.023Z,3.22
2022-09-21T04:44:27.110Z,3.60
2022-09-21T04:49:33.646Z,3.30
2022-09-21T04:54:35.706Z,3.80
2022-09-21T04:59:38.156Z,3.83
2022-09-21T05:04:41.626Z,4.18
2022-09-21T05:10:01.236Z,4.60
2022-09-21T05:15:03.383Z,4.40
2022-09-21T05:20:07.905Z,4.28
2022-09-21T05:25:11.305Z,3.45
2022-09-21T05:30:14.797Z,3.42
2022-09-21T05:35:28.767Z,3.13
2022-09-21T05:40:31.473Z,3.20
2022-09-21T05:45:34.355Z,3.50
2022-09-21T05:50:47.038Z,3.60
2022-09-21T05:55:56.435Z,3.40
2022-09-21T06:01:12.649Z,3.55
2022-09-21T06:06:16.052Z,3.72
2022-09-21T06:11:18.324Z,3.03
2022-09-21T06:16:20.514Z,3.25
2022-09-21T06:21:28.055Z,3.10
2022-09-21T06:26:30.184Z,3.20
2022-09-21T06:31:32.270Z,3.22
2022-09-21T06:36:35.771Z,3.17
2022-09-21T06:41:40.835Z,3.60
2022-09-21T06:46:42.878Z,3.28
2022-09-21T06:51:48.365Z,3.33
2022-09-21T06:56:50.433Z,3.28
2022-09-21T07:01:52.589Z,3.40
2022-09-21T07:06:56.182Z,3.13
2022-09-21T07:12:00.365Z,3.22
2022-09-21T07:17:03.455Z,3.00
2022-09-21T07:22:09.649Z,3.20
2022-09-21T07:27:12.638Z,3.00
2022-09-21T07:32:15.935Z,3.28
2022-09-21T07:37:19.675Z,4.00
2022-09-21T07:42:26.619Z,3.38
2022-09-21T07:47:34.098Z,3.70
2022-09-21T07:52:43.881Z,3.20
2022-09-21T07:58:03.757Z,3.60
2022-09-21T08:03:06.201Z,3.83
2022-09-21T08:08:10.070Z,3.40
2022-09-21T08:13:12.107Z,3.42
2022-09-21T08:18:14.152Z,3.67
2022-09-21T08:23:18.715Z,3.67
2022-09-21T08:28:20.726Z,3.50
2022-09-21T08:33:27.280Z,3.28
2022-09-21T08:38:38.701Z,4.15
2022-09-21T08:43:48.664Z,3.35
2022-09-21T08:48:57.166Z,2.78
2022-09-21T08:54:06.267Z,2.92
2022-09-21T08:59:13.008Z,3.20
2022-09-21T09:04:37.192Z,3.35
2022-09-21T09:09:54.897Z,3.58
2022-09-21T09:15:12.724Z,3.17
2022-09-21T09:20:20.480Z,3.28
2022-09-21T09:25:25.588Z,3.05
2022-09-21T09:30:31.661Z,3.20
2022-09-21T09:35:39.164Z,2.53
2022-09-21T09:41:00.711Z,2.60
2022-09-21T09:46:13.143Z,2.63
2022-09-21T09:51:15.732Z,2.42
2022-09-21T09:56:20.120Z,2.97
2022-09-21T10:01:39.146Z,2.95
2022-09-21T10:06:46.167Z,2.40
2022-09-21T10:11:50.502Z,1.77
2022-09-21T10:16:53.782Z,1.52
2022-09-21T10:21:58.948Z,1.70
2022-09-21T10:27:10.420Z,2.20
2022-09-21T10:32:23.763Z,1.80
2022-09-21T10:37:28.852Z,1.40
2022-09-21T10:42:37.257Z,1.40
2022-09-21T10:47:43.049Z,1.30
2022-09-21T10:52:47.306Z,0.90
2022-09-21T10:57:53.957Z,1.00
2022-09-21T11:02:56.887Z,1.15
2022-09-21T11:08:05.344Z,1.00
2022-09-21T11:13:21.924Z,1.17
2022-09-21T11:18:36.415Z,1.30
2022-09-21T11:23:48.284Z,1.40
2022-09-21T11:28:58.882Z,1.48
2022-09-21T11:34:19.932Z,1.60
2022-09-21T11:39:31.145Z,1.00
2022-09-21T11:44:55.559Z,1.27
2022-09-21T11:50:41.143Z,1.10
2022-09-21T11:56:08.259Z,1.77
2022-09-21T12:01:27.129Z,2.00
2022-09-21T12:06:44.948Z,1.77
2022-09-21T12:11:57.618Z,1.52
2022-09-21T12:17:06.856Z,1.70
2022-09-21T12:22:13.674Z,1.95
2022-09-21T12:27:26.464Z,1.67
2022-09-21T12:32:50.111Z,1.60
2022-09-21T12:37:57.517Z,2.10
2022-09-21T12:43:10.750Z,2.15
2022-09-21T12:48:23.990Z,1.80
2022-09-21T12:53:29.497Z,1.10
2022-09-21T12:58:55.628Z,1.40
2022-09-21T13:04:21.890Z,1.35
2022-09-21T13:09:24.593Z,1.35
2022-09-21T13:14:28.336Z,1.60
2022-09-21T13:19:33.623Z,1.60
2022-09-21T13:24:35.713Z,1.42
2022-09-21T13:29:40.754Z,1.50
2022-09-21T13:34:45.621Z,1.25
2022-09-21T13:39:53.045Z,1.50
2022-09-21T13:44:55.709Z,1.80
2022-09-21T13:50:01.278Z,1.70
2022-09-21T13:55:06.053Z,1.70
2022-09-21T14:00:30.935Z,1.70
2022-09-21T14:05:39.383Z,1.95
2022-09-21T14:10:49.806Z,1.40
2022-09-21T14:15:52.375Z,1.45
2022-09-21T14:21:18.439Z,1.50
2022-09-21T14:26:33.953Z,1.60
2022-09-21T14:31:45.961Z,1.85
2022-09-21T14:36:57.931Z,2.08
2022-09-21T14:42:12.560Z,1.80
2022-09-21T14:47:52.975Z,1.63
2022-09-21T14:53:39.524Z,1.92
2022-09-21T15:04:46.177Z,2.10
2022-09-21T15:10:30.420Z,2.00
2022-09-21T15:15:38.435Z,1.77
2022-09-21T15:20:40.757Z,2.05
2022-09-21T15:25:58.738Z,3.47
2022-09-21T15:31:00.839Z,2.33
2022-09-21T15:36:03.661Z,1.92
2022-09-21T15:41:11.745Z,1.95
2022-09-21T15:46:14.903Z,1.85
2022-09-21T15:51:22.304Z,1.95
2022-09-21T15:56:28.783Z,1.92
2022-09-21T16:01:31.649Z,1.90
2022-09-21T16:06:38.968Z,2.00
2022-09-21T16:11:42.779Z,1.80
2022-09-21T16:17:06.658Z,2.90
2022-09-21T16:22:12.772Z,2.35
2022-09-21T16:27:20.658Z,2.20
2022-09-21T16:32:32.047Z,2.17
2022-09-21T16:37:34.156Z,2.20
2022-09-21T16:42:38.490Z,2.05
2022-09-21T16:47:40.652Z,2.78
2022-09-21T16:52:45.593Z,2.30
2022-09-21T16:57:49.364Z,2.15
2022-09-21T17:02:51.402Z,2.05
2022-09-21T17:07:55.459Z,2.13
2022-09-21T17:12:59.343Z,2.03
2022-09-21T17:18:02.333Z,1.63
2022-09-21T17:23:04.523Z,1.60
2022-09-21T17:28:15.118Z,1.70
2022-09-21T17:33:17.914Z,1.63
2022-09-21T17:38:20.010Z,1.60
2022-09-21T17:43:37.611Z,1.40
2022-09-21T17:48:41.672Z,1.40
2022-09-21T17:53:44.227Z,1.75
2022-09-21T17:58:52.944Z,1.50
2022-09-21T18:03:55.471Z,1.52
2022-09-21T18:08:58.518Z,1.60
2022-09-21T18:14:10.049Z,1.80
2022-09-21T18:19:30.994Z,1.70
2022-09-21T18:24:33.491Z,1.60
2022-09-21T18:29:41.334Z,1.40
2022-09-21T18:35:28.766Z,1.60
2022-09-21T18:40:40.296Z,1.60
2022-09-21T18:45:47.298Z,1.70
2022-09-21T18:50:57.578Z,1.40
2022-09-21T18:56:00.192Z,1.50
2022-09-21T19:01:05.009Z,1.73
2022-09-21T19:06:27.589Z,1.80
2022-09-21T19:11:34.994Z,1.80
2022-09-21T19:16:48.049Z,1.83
2022-09-21T19:21:55.429Z,2.70
2022-09-21T19:27:09.892Z,2.40
2022-09-21T19:32:16.810Z,1.83
2022-09-21T19:37:19.046Z,1.70
2022-09-21T19:42:30.333Z,1.70
2022-09-21T19:47:38.470Z,1.80
2022-09-21T19:52:40.983Z,2.47
2022-09-21T19:58:01.170Z,1.95
2022-09-21T20:03:09.050Z,2.20
2022-09-21T20:08:19.224Z,2.10
2022-09-21T20:13:31.437Z,1.80
2022-09-21T20:18:41.736Z,2.20
2022-09-21T20:23:46.789Z,2.25
2022-09-21T20:28:53.428Z,2.28
2022-09-21T20:33:56.981Z,2.13
2022-09-21T20:39:00.194Z,1.90
2022-09-21T20:44:02.885Z,2.58
2022-09-21T20:49:08.659Z,2.30
2022-09-21T20:54:10.738Z,2.08
2022-09-21T20:59:13.439Z,2.38
2022-09-21T21:04:16.940Z,2.45
2022-09-21T21:09:19.073Z,2.38
2022-09-21T21:14:21.349Z,2.55
2022-09-21T21:19:24.784Z,2.40
2022-09-21T21:24:42.090Z,2.40
2022-09-21T21:29:46.294Z,3.30
2022-09-21T21:34:50.510Z,2.33
2022-09-21T21:39:53.061Z,2.70
2022-09-21T21:44:55.115Z,2.20
2022-09-21T21:49:58.546Z,2.50
2022-09-21T21:55:00.672Z,2.30
2022-09-21T22:00:03.426Z,2.58
2022-09-21T22:05:07.781Z,2.53
2022-09-21T22:10:10.867Z,2.50
2022-09-21T22:15:13.087Z,2.30
2022-09-21T22:20:16.706Z,2.10
2022-09-21T22:25:18.739Z,2.30
2022-09-21T22:30:20.784Z,2.28
2022-09-21T22:35:24.235Z,2.17
2022-09-21T22:40:26.339Z,2.35
2022-09-21T22:45:28.491Z,2.30
2022-09-21T22:50:31.927Z,2.40
2022-09-21T22:55:34.423Z,2.00
2022-09-21T23:00:36.626Z,2.50
2022-09-21T23:05:40.069Z,2.45
2022-09-21T23:10:42.096Z,2.30
2022-09-21T23:15:44.206Z,2.50
2022-09-21T23:21:00.561Z,2.50
2022-09-21T23:26:04.929Z,2.50
2022-09-21T23:31:08.717Z,2.58
2022-09-21T23:36:14.032Z,2.50
2022-09-21T23:41:18.611Z,2.70
2022-09-21T23:46:22.541Z,2.45
2022-09-21T23:51:26.852Z,2.63
2022-09-21T23:56:29.502Z,2.90
